createdAt,value
2022-12-17T00:00:26.039Z,6.77
2022-12-17T00:03:49.827Z,6.20
2022-12-17T00:07:14.889Z,6.23
2022-12-17T00:10:42.403Z,6.43
2022-12-17T00:14:12.896Z,6.40
2022-12-17T00:17:35.132Z,5.83
2022-12-17T00:20:57.544Z,6.77
2022-12-17T00:24:33.867Z,7.10
2022-12-17T00:27:57.218Z,5.77
2022-12-17T00:31:19.538Z,5.23
2022-12-17T00:34:41.804Z,6.23
2022-12-17T00:38:06.914Z,5.73
2022-12-17T00:41:42.389Z,6.70
2022-12-17T00:45:05.996Z,6.70
2022-12-17T00:48:30.321Z,7.23
2022-12-17T00:51:57.480Z,5.60
2022-12-17T00:55:23.513Z,5.87
2022-12-17T00:59:12.152Z,6.17
2022-12-17T01:02:54.608Z,6.43
2022-12-17T01:06:26.462Z,5.93
2022-12-17T01:09:52.547Z,6.43
2022-12-17T01:17:49.538Z,5.30
2022-12-17T01:21:20.275Z,6.40
2022-12-17T01:28:52.178Z,6.47
2022-12-17T01:32:16.969Z,6.17
2022-12-17T01:35:44.107Z,5.73
2022-12-17T01:39:14.161Z,5.37
2022-12-17T01:42:52.064Z,5.93
2022-12-17T01:46:20.142Z,5.80
2022-12-17T01:50:12.704Z,5.80
2022-12-17T01:53:43.275Z,6.37
2022-12-17T01:57:18.663Z,5.47
2022-12-17T02:00:50.576Z,6.13
2022-12-17T02:04:24.504Z,4.77
2022-12-17T02:08:09.200Z,5.73
2022-12-17T02:11:46.122Z,5.83
2022-12-17T02:15:20.015Z,5.97
2022-12-17T02:19:03.665Z,6.20
2022-12-17T02:22:45.206Z,4.93
2022-12-17T02:26:16.462Z,5.77
2022-12-17T02:29:48.760Z,4.60
2022-12-17T02:33:13.684Z,5.87
2022-12-17T02:36:45.834Z,5.50
2022-12-17T02:40:13.106Z,5.40
2022-12-17T02:43:45.596Z,5.60
2022-12-17T02:47:19.708Z,5.80
2022-12-17T02:50:47.377Z,5.93
2022-12-17T02:54:15.138Z,6.27
2022-12-17T02:57:43.827Z,6.80
2022-12-17T03:01:08.356Z,6.27
2022-12-17T03:04:34.748Z,5.97
2022-12-17T03:07:58.070Z,5.57
2022-12-17T03:11:25.793Z,5.93
2022-12-17T03:14:48.219Z,6.33
2022-12-17T03:18:11.775Z,5.60
2022-12-17T03:21:38.364Z,5.90
2022-12-17T03:25:00.687Z,6.17
2022-12-17T03:28:26.308Z,6.93
2022-12-17T03:31:48.511Z,7.30
2022-12-17T03:35:12.845Z,5.70
2022-12-17T03:38:37.706Z,6.23
2022-12-17T03:42:02.151Z,6.03
2022-12-17T03:45:24.988Z,6.97
2022-12-17T03:48:47.401Z,6.77
2022-12-17T03:52:09.900Z,6.97
2022-12-17T03:55:35.356Z,7.07
2022-12-17T03:58:58.154Z,6.97
2022-12-17T04:02:21.846Z,6.67
2022-12-17T04:05:44.721Z,6.27
2022-12-17T04:09:07.748Z,8.53
2022-12-17T04:12:36.233Z,7.07
2022-12-17T04:16:06.994Z,6.60
2022-12-17T04:19:26.550Z,7.23
2022-12-17T04:22:48.393Z,6.63
2022-12-17T04:26:11.257Z,7.43
2022-12-17T04:29:34.737Z,7.20
2022-12-17T04:32:56.954Z,6.93
2022-12-17T04:36:19.096Z,7.30
2022-12-17T04:39:42.446Z,8.67
2022-12-17T04:43:06.240Z,7.93
2022-12-17T04:46:31.283Z,8.10
2022-12-17T04:49:54.410Z,8.03
2022-12-17T04:53:21.282Z,8.17
2022-12-17T04:56:44.630Z,8.03
2022-12-17T05:00:12.707Z,9.03
2022-12-17T05:03:38.734Z,7.97
2022-12-17T05:07:07.631Z,9.97
2022-12-17T05:10:44.422Z,11.03
2022-12-17T05:14:09.446Z,11.53
2022-12-17T05:18:14.156Z,10.57
2022-12-17T05:30:21.276Z,8.93
2022-12-17T05:34:16.195Z,8.17
2022-12-17T05:37:55.072Z,9.67
2022-12-17T05:45:26.554Z,8.73
2022-12-17T05:48:56.606Z,9.73
2022-12-17T05:52:52.163Z,10.17
2022-12-17T05:56:54.271Z,10.80
2022-12-17T06:00:29.139Z,10.43
2022-12-17T06:03:57.418Z,9.93
2022-12-17T06:07:28.691Z,10.07
2022-12-17T06:10:53.969Z,10.53
2022-12-17T06:14:31.800Z,11.57
2022-12-17T06:17:57.678Z,9.70
2022-12-17T06:21:29.414Z,9.20
2022-12-17T06:25:44.396Z,10.17
2022-12-17T06:29:21.168Z,11.80
2022-12-17T06:32:58.853Z,10.73
2022-12-17T06:36:31.668Z,11.50
2022-12-17T06:40:00.507Z,10.33
2022-12-17T06:43:27.349Z,11.00
2022-12-17T06:50:55.396Z,9.63
2022-12-17T06:54:30.216Z,10.83
2022-12-17T06:58:17.625Z,11.13
2022-12-17T07:01:49.351Z,12.33
2022-12-17T07:05:24.691Z,11.80
2022-12-17T07:08:57.755Z,10.07
2022-12-17T07:12:42.154Z,11.57
2022-12-17T07:16:15.389Z,11.10
2022-12-17T07:19:37.726Z,11.20
2022-12-17T07:22:57.764Z,11.57
2022-12-17T07:26:20.069Z,11.00
2022-12-17T07:29:43.546Z,11.57
2022-12-17T07:33:07.642Z,10.83
2022-12-17T07:36:29.966Z,11.23
2022-12-17T07:39:53.283Z,11.27
2022-12-17T07:43:12.507Z,10.23
2022-12-17T07:46:43.436Z,9.60
2022-12-17T07:50:08.574Z,10.30
2022-12-17T07:53:30.771Z,10.00
2022-12-17T07:56:57.128Z,12.00
2022-12-17T08:00:19.559Z,11.30
2022-12-17T08:03:44.887Z,11.33
2022-12-17T08:07:13.243Z,11.27
2022-12-17T08:10:36.419Z,9.63
2022-12-17T08:14:00.321Z,10.17
2022-12-17T08:17:31.707Z,11.10
2022-12-17T08:21:09.034Z,10.33
2022-12-17T08:24:31.688Z,10.43
2022-12-17T08:27:55.154Z,10.47
2022-12-17T08:31:20.252Z,10.07
2022-12-17T08:34:45.516Z,9.67
2022-12-17T08:38:12.574Z,10.17
2022-12-17T08:41:39.007Z,8.57
2022-12-17T08:45:01.608Z,9.17
2022-12-17T08:48:30.067Z,9.20
2022-12-17T08:51:52.632Z,10.30
2022-12-17T08:55:30.749Z,9.90
2022-12-17T08:59:05.711Z,10.23
2022-12-17T09:02:30.399Z,9.47
2022-12-17T09:06:04.253Z,9.27
2022-12-17T09:09:36.695Z,8.73
2022-12-17T09:13:35.027Z,9.87
2022-12-17T09:17:02.744Z,9.43
2022-12-17T09:20:30.610Z,9.97
2022-12-17T09:23:55.724Z,9.73
2022-12-17T09:27:24.581Z,10.50
2022-12-17T09:30:59.169Z,9.67
2022-12-17T09:38:02.720Z,10.60
2022-12-17T09:41:40.137Z,11.30
2022-12-17T09:45:25.726Z,10.30
2022-12-17T09:49:17.252Z,10.37
2022-12-17T09:52:47.015Z,11.13
2022-12-17T09:56:17.036Z,10.47
2022-12-17T09:59:52.344Z,10.93
2022-12-17T10:03:16.821Z,10.50
2022-12-17T10:06:57.714Z,12.30
2022-12-17T10:14:11.276Z,10.07
2022-12-17T10:18:02.397Z,11.37
2022-12-17T10:21:33.121Z,9.73
2022-12-17T10:25:06.952Z,10.47
2022-12-17T10:28:36.549Z,10.90
2022-12-17T10:31:59.424Z,11.93
2022-12-17T10:35:36.827Z,10.77
2022-12-17T10:39:02.697Z,12.13
2022-12-17T10:42:42.393Z,11.77
2022-12-17T10:46:15.309Z,11.83
2022-12-17T10:49:41.236Z,11.27
2022-12-17T10:53:11.362Z,12.10
2022-12-17T10:56:54.083Z,11.50
2022-12-17T11:00:41.951Z,10.23
2022-12-17T11:04:26.028Z,11.47
2022-12-17T11:11:47.800Z,11.77
2022-12-17T11:15:18.668Z,11.83
2022-12-17T11:19:15.664Z,12.57
2022-12-17T11:22:54.304Z,11.67
2022-12-17T11:26:26.051Z,12.33
2022-12-17T11:29:50.980Z,11.37
2022-12-17T11:33:25.665Z,13.70
2022-12-17T11:37:09.827Z,11.73
2022-12-17T11:40:56.726Z,11.53
2022-12-17T11:44:31.598Z,12.43
2022-12-17T11:48:10.133Z,12.00
2022-12-17T11:51:38.544Z,13.03
2022-12-17T11:55:07.487Z,13.07
2022-12-17T11:58:40.939Z,13.07
2022-12-17T12:02:16.099Z,12.60
2022-12-17T12:05:53.443Z,13.03
2022-12-17T12:09:34.188Z,12.13
2022-12-17T12:17:10.293Z,12.67
2022-12-17T12:20:46.518Z,13.40
2022-12-17T12:24:20.951Z,13.20
2022-12-17T12:27:54.799Z,12.43
2022-12-17T12:31:25.270Z,13.37
2022-12-17T12:34:54.974Z,12.17
2022-12-17T12:38:16.370Z,11.63
2022-12-17T12:41:45.994Z,12.83
2022-12-17T12:45:19.589Z,11.30
2022-12-17T12:48:57.830Z,12.30
2022-12-17T12:52:25.320Z,13.27
2022-12-17T12:55:58.594Z,12.97
2022-12-17T12:59:45.811Z,14.30
2022-12-17T13:03:31.094Z,13.80
2022-12-17T13:10:33.038Z,14.50
2022-12-17T13:13:56.414Z,15.03
2022-12-17T13:17:15.685Z,15.47
2022-12-17T13:20:47.657Z,14.27
2022-12-17T13:23:59.017Z,15.77
2022-12-17T13:27:09.192Z,15.87
2022-12-17T13:30:38.756Z,14.57
2022-12-17T13:34:05.921Z,14.47
2022-12-17T13:37:23.103Z,16.23
2022-12-17T13:40:41.353Z,13.93
2022-12-17T13:43:58.649Z,16.37
2022-12-17T13:47:05.659Z,15.30
2022-12-17T13:50:36.587Z,16.17
2022-12-17T13:53:45.004Z,18.17
2022-12-17T13:57:09.622Z,17.43
2022-12-17T14:00:27.634Z,16.83
2022-12-17T14:04:05.290Z,14.90
2022-12-17T14:07:09.365Z,15.23
2022-12-17T14:10:19.441Z,15.30
2022-12-17T14:13:27.507Z,15.27
2022-12-17T14:16:36.622Z,15.13
2022-12-17T14:19:44.922Z,15.27
2022-12-17T14:22:58.202Z,15.53
2022-12-17T14:26:04.825Z,14.77
2022-12-17T14:29:17.544Z,15.30
2022-12-17T14:32:34.898Z,15.97
2022-12-17T14:36:00.063Z,15.00
2022-12-17T14:39:24.365Z,14.10
2022-12-17T14:42:33.746Z,14.30
2022-12-17T14:45:58.465Z,13.20
2022-12-17T14:49:22.493Z,16.07
2022-12-17T14:53:07.059Z,12.90
2022-12-17T14:56:58.693Z,14.03
2022-12-17T15:08:30.733Z,12.50
2022-12-17T15:11:51.024Z,14.07
2022-12-17T15:15:22.976Z,14.70
2022-12-17T15:22:05.548Z,12.53
2022-12-17T15:29:29.347Z,13.30
2022-12-17T15:32:48.711Z,13.07
2022-12-17T15:36:19.847Z,12.40
2022-12-17T15:47:14.828Z,10.90
2022-12-17T15:51:06.562Z,12.17
2022-12-17T16:14:44.837Z,11.53
2022-12-17T16:21:52.565Z,10.27
2022-12-17T16:25:46.213Z,11.03
2022-12-17T16:32:54.801Z,11.80
2022-12-17T16:43:53.868Z,10.97
2022-12-17T16:47:18.818Z,10.93
2022-12-17T16:51:37.677Z,11.33
2022-12-17T16:54:50.330Z,11.20
2022-12-17T16:58:12.244Z,12.70
2022-12-17T17:05:10.390Z,11.07
2022-12-17T17:11:55.043Z,10.17
2022-12-17T17:15:03.939Z,13.50
2022-12-17T17:18:14.116Z,12.87
2022-12-17T17:21:31.864Z,13.27
2022-12-17T17:24:40.041Z,14.23
2022-12-17T17:27:50.838Z,13.90
2022-12-17T17:31:05.558Z,12.60
2022-12-17T17:34:14.429Z,13.20
2022-12-17T17:37:22.886Z,13.60
2022-12-17T17:40:32.455Z,12.50
2022-12-17T17:43:45.412Z,12.67
2022-12-17T17:47:16.207Z,11.47
2022-12-17T17:50:25.789Z,12.53
2022-12-17T17:53:37.481Z,13.70
2022-12-17T17:56:51.837Z,15.03
2022-12-17T18:00:07.675Z,12.40
2022-12-17T18:03:18.075Z,15.43
2022-12-17T18:07:16.031Z,13.37
2022-12-17T18:10:19.259Z,14.00
2022-12-17T18:13:48.574Z,14.23
2022-12-17T18:16:59.189Z,13.43
2022-12-17T18:20:07.794Z,15.17
2022-12-17T18:23:15.259Z,13.67
2022-12-17T18:26:25.405Z,13.43
2022-12-17T18:29:35.966Z,12.40
2022-12-17T18:32:45.083Z,12.97
2022-12-17T18:35:52.427Z,14.17
2022-12-17T18:39:04.078Z,12.77
2022-12-17T18:42:28.477Z,13.43
2022-12-17T18:45:39.222Z,13.07
2022-12-17T18:48:47.896Z,11.03
2022-12-17T18:51:54.540Z,13.97
2022-12-17T18:55:00.730Z,13.30
2022-12-17T18:58:11.531Z,12.50
2022-12-17T19:01:25.682Z,12.50
2022-12-17T19:04:33.517Z,14.10
2022-12-17T19:07:41.226Z,12.27
2022-12-17T19:10:47.920Z,13.90
2022-12-17T19:13:57.126Z,11.20
2022-12-17T19:17:04.516Z,13.53
2022-12-17T19:20:13.965Z,13.13
2022-12-17T19:23:20.639Z,13.50
2022-12-17T19:26:28.186Z,12.77
2022-12-17T19:29:38.465Z,12.60
2022-12-17T19:32:49.347Z,12.40
2022-12-17T19:36:08.664Z,12.13
2022-12-17T19:39:19.625Z,10.97
2022-12-17T19:42:37.141Z,13.77
2022-12-17T19:45:46.183Z,13.40
2022-12-17T19:48:59.694Z,11.90
2022-12-17T19:52:10.307Z,12.33
2022-12-17T19:55:27.874Z,12.17
2022-12-17T19:58:42.554Z,11.57
2022-12-17T20:02:15.006Z,11.30
2022-12-17T20:05:24.276Z,10.97
2022-12-17T20:08:41.435Z,12.53
2022-12-17T20:11:54.606Z,11.60
2022-12-17T20:15:06.713Z,11.63
2022-12-17T20:22:07.508Z,12.23
2022-12-17T20:25:40.575Z,12.90
2022-12-17T20:29:04.439Z,12.57
2022-12-17T20:35:52.413Z,12.53
2022-12-17T20:39:04.830Z,13.00
2022-12-17T20:42:23.685Z,13.00
2022-12-17T20:45:32.634Z,14.17
2022-12-17T20:48:44.152Z,12.50
2022-12-17T20:51:54.274Z,12.27
2022-12-17T20:55:06.040Z,10.90
2022-12-17T20:58:14.893Z,11.57
2022-12-17T21:01:22.938Z,11.30
2022-12-17T21:04:31.438Z,13.10
2022-12-17T21:07:38.691Z,14.00
2022-12-17T21:10:52.008Z,12.73
2022-12-17T21:14:00.054Z,14.93
2022-12-17T21:17:08.016Z,13.37
2022-12-17T21:20:15.351Z,13.37
2022-12-17T21:23:24.594Z,16.00
2022-12-17T21:26:32.955Z,13.17
2022-12-17T21:29:40.911Z,11.27
2022-12-17T21:32:49.023Z,12.37
2022-12-17T21:36:07.586Z,13.20
2022-12-17T21:39:15.746Z,12.33
2022-12-17T21:42:38.098Z,12.20
2022-12-17T21:45:49.185Z,12.60
2022-12-17T21:49:04.445Z,14.87
2022-12-17T21:52:11.366Z,13.27
2022-12-17T21:55:18.451Z,12.37
2022-12-17T21:58:26.811Z,12.30
2022-12-17T22:01:37.600Z,11.47
2022-12-17T22:04:44.020Z,12.73
2022-12-17T22:07:50.396Z,12.20
2022-12-17T22:10:59.136Z,11.93
2022-12-17T22:14:09.527Z,12.10
2022-12-17T22:17:20.557Z,13.17
2022-12-17T22:20:30.620Z,12.90
2022-12-17T22:23:37.800Z,12.40
2022-12-17T22:26:46.960Z,13.50
2022-12-17T22:30:10.011Z,12.97
2022-12-17T22:34:27.613Z,13.37
2022-12-17T22:38:30.393Z,11.97
2022-12-17T22:43:43.645Z,12.80
2022-12-17T22:44:44.172Z,12.50
2022-12-17T22:47:15.846Z,12.57
2022-12-17T22:50:42.287Z,10.90
2022-12-17T22:54:08.724Z,13.33
2022-12-17T22:57:35.760Z,13.67
2022-12-17T23:00:50.671Z,13.37
2022-12-17T23:03:59.365Z,13.23
2022-12-17T23:07:12.299Z,13.83
2022-12-17T23:10:26.567Z,12.43
2022-12-17T23:13:40.373Z,12.20
2022-12-17T23:16:51.759Z,11.73
2022-12-17T23:19:58.944Z,11.20
2022-12-17T23:23:08.053Z,10.97
2022-12-17T23:26:16.371Z,10.67
2022-12-17T23:29:23.402Z,11.43
2022-12-17T23:32:32.131Z,11.13
2022-12-17T23:35:38.128Z,11.63
2022-12-17T23:38:46.797Z,10.20
2022-12-17T23:41:53.063Z,12.40
2022-12-17T23:45:02.733Z,10.53
2022-12-17T23:48:09.921Z,9.83
2022-12-17T23:51:18.282Z,11.57
2022-12-17T23:54:27.726Z,10.63
2022-12-17T23:57:34.500Z,12.00
